sensor_id;sensor_type;location;lat;lon;timestamp;pressure;altitude;pressure_sealevel;temperature;humidity
30339;BME280;795;49.296;11.348;2023-05-23T00:01:43;95991.44;;;14.64;100.00
30339;BME280;795;49.296;11.348;2023-05-23T00:04:11;95989.56;;;14.58;100.00
30339;BME280;795;49.296;11.348;2023-05-23T00:06:43;95985.81;;;14.59;100.00
30339;BME280;795;49.296;11.348;2023-05-23T00:09:16;96001.00;;;14.60;100.00
30339;BME280;795;49.296;11.348;2023-05-23T00:11:44;95998.69;;;14.63;100.00
30339;BME280;795;49.296;11.348;2023-05-23T00:14:13;96016.19;;;14.74;100.00
30339;BME280;795;49.296;11.348;2023-05-23T00:16:42;95997.09;;;14.82;100.00
30339;BME280;795;49.296;11.348;2023-05-23T00:19:12;96013.09;;;14.90;100.00
30339;BME280;795;49.296;11.348;2023-05-23T00:21:46;95998.34;;;14.80;100.00
30339;BME280;795;49.296;11.348;2023-05-23T00:24:17;96007.25;;;14.74;100.00
30339;BME280;795;49.296;11.348;2023-05-23T00:26:46;96023.25;;;14.75;100.00
30339;BME280;795;49.296;11.348;2023-05-23T00:29:14;96021.38;;;14.76;100.00
30339;BME280;795;49.296;11.348;2023-05-23T00:31:44;95979.09;;;14.42;100.00
30339;BME280;795;49.296;11.348;2023-05-23T00:34:15;96030.09;;;14.71;100.00
30339;BME280;795;49.296;11.348;2023-05-23T00:36:45;96029.09;;;14.72;100.00
30339;BME280;795;49.296;11.348;2023-05-23T00:39:14;96020.75;;;14.67;100.00
30339;BME280;795;49.296;11.348;2023-05-23T00:41:48;96027.84;;;14.81;100.00
30339;BME280;795;49.296;11.348;2023-05-23T00:44:19;96034.50;;;14.85;100.00
30339;BME280;795;49.296;11.348;2023-05-23T00:46:54;96041.59;;;14.93;100.00
30339;BME280;795;49.296;11.348;2023-05-23T00:49:23;96003.31;;;14.83;100.00
30339;BME280;795;49.296;11.348;2023-05-23T00:51:51;96003.53;;;14.81;100.00
30339;BME280;795;49.296;11.348;2023-05-23T00:54:28;96039.31;;;15.03;100.00
30339;BME280;795;49.296;11.348;2023-05-23T00:56:59;96036.84;;;15.14;100.00
30339;BME280;795;49.296;11.348;2023-05-23T00:59:26;96024.56;;;15.12;100.00
30339;BME280;795;49.296;11.348;2023-05-23T01:01:56;96051.00;;;15.23;100.00
30339;BME280;795;49.296;11.348;2023-05-23T01:04:24;96032.69;;;15.32;100.00
30339;BME280;795;49.296;11.348;2023-05-23T01:06:55;96043.31;;;15.40;100.00
30339;BME280;795;49.296;11.348;2023-05-23T01:09:27;96037.69;;;15.35;100.00
30339;BME280;795;49.296;11.348;2023-05-23T01:12:24;96032.69;;;15.38;100.00
30339;BME280;795;49.296;11.348;2023-05-23T01:15:16;96045.22;;;15.46;100.00
30339;BME280;795;49.296;11.348;2023-05-23T01:18:15;96040.88;;;15.45;100.00
30339;BME280;795;49.296;11.348;2023-05-23T01:20:54;96050.22;;;15.49;100.00
30339;BME280;795;49.296;11.348;2023-05-23T01:23:52;96043.16;;;15.48;100.00
30339;BME280;795;49.296;11.348;2023-05-23T01:27:06;96054.16;;;15.40;100.00
30339;BME280;795;49.296;11.348;2023-05-23T01:29:44;96043.09;;;15.08;100.00
30339;BME280;795;49.296;11.348;2023-05-23T01:32:15;96052.00;;;15.02;100.00
30339;BME280;795;49.296;11.348;2023-05-23T01:34:44;96042.63;;;14.85;100.00
30339;BME280;795;49.296;11.348;2023-05-23T01:37:12;95993.25;;;14.44;100.00
30339;BME280;795;49.296;11.348;2023-05-23T01:39:46;96040.06;;;14.64;100.00
30339;BME280;795;49.296;11.348;2023-05-23T01:42:14;96050.03;;;14.63;100.00
30339;BME280;795;49.296;11.348;2023-05-23T01:44:44;96038.97;;;14.45;100.00
30339;BME280;795;49.296;11.348;2023-05-23T01:47:13;96032.88;;;14.30;100.00
30339;BME280;795;49.296;11.348;2023-05-23T01:49:42;96041.84;;;14.44;100.00
30339;BME280;795;49.296;11.348;2023-05-23T01:52:11;96035.44;;;14.45;100.00
30339;BME280;795;49.296;11.348;2023-05-23T01:54:40;96047.31;;;14.50;100.00
30339;BME280;795;49.296;11.348;2023-05-23T01:57:09;96022.72;;;14.39;100.00
30339;BME280;795;49.296;11.348;2023-05-23T01:59:36;96037.72;;;14.48;100.00
30339;BME280;795;49.296;11.348;2023-05-23T02:02:04;96034.13;;;14.34;100.00
30339;BME280;795;49.296;11.348;2023-05-23T02:04:32;96036.19;;;14.32;100.00
30339;BME280;795;49.296;11.348;2023-05-23T02:06:59;96022.63;;;14.19;100.00
30339;BME280;795;49.296;11.348;2023-05-23T02:09:26;96033.94;;;14.36;100.00
30339;BME280;795;49.296;11.348;2023-05-23T02:11:53;96054.53;;;14.43;100.00
30339;BME280;795;49.296;11.348;2023-05-23T02:14:21;96017.44;;;14.24;100.00
30339;BME280;795;49.296;11.348;2023-05-23T02:16:48;96053.09;;;14.47;100.00
30339;BME280;795;49.296;11.348;2023-05-23T02:19:15;96051.63;;;14.45;100.00
30339;BME280;795;49.296;11.348;2023-05-23T02:21:42;96030.00;;;14.38;100.00
30339;BME280;795;49.296;11.348;2023-05-23T02:24:09;96044.16;;;14.53;100.00
30339;BME280;795;49.296;11.348;2023-05-23T02:26:36;96028.78;;;14.47;100.00
30339;BME280;795;49.296;11.348;2023-05-23T02:29:03;96044.63;;;14.63;100.00
30339;BME280;795;49.296;11.348;2023-05-23T02:31:30;96047.16;;;14.65;100.00
30339;BME280;795;49.296;11.348;2023-05-23T02:33:57;96046.31;;;14.71;100.00
30339;BME280;795;49.296;11.348;2023-05-23T02:36:24;96056.34;;;14.84;100.00
30339;BME280;795;49.296;11.348;2023-05-23T02:38:52;96049.06;;;14.91;100.00
30339;BME280;795;49.296;11.348;2023-05-23T02:41:19;96055.72;;;14.95;100.00
30339;BME280;795;49.296;11.348;2023-05-23T02:43:47;96040.50;;;14.68;100.00
30339;BME280;795;49.296;11.348;2023-05-23T02:46:14;96060.06;;;14.76;100.00
30339;BME280;795;49.296;11.348;2023-05-23T02:48:41;95946.75;;;14.01;100.00
30339;BME280;795;49.296;11.348;2023-05-23T02:51:08;96031.88;;;14.44;100.00
30339;BME280;795;49.296;11.348;2023-05-23T02:53:35;96049.41;;;14.55;100.00
30339;BME280;795;49.296;11.348;2023-05-23T02:56:02;96013.69;;;14.25;100.00
30339;BME280;795;49.296;11.348;2023-05-23T02:58:29;96043.06;;;14.35;100.00
30339;BME280;795;49.296;11.348;2023-05-23T03:00:56;96052.63;;;14.37;100.00
30339;BME280;795;49.296;11.348;2023-05-23T03:03:23;96053.59;;;14.30;100.00
30339;BME280;795;49.296;11.348;2023-05-23T03:05:51;96030.06;;;14.17;100.00
30339;BME280;795;49.296;11.348;2023-05-23T03:08:17;96055.56;;;14.36;100.00
30339;BME280;795;49.296;11.348;2023-05-23T03:10:44;96048.69;;;14.40;100.00
30339;BME280;795;49.296;11.348;2023-05-23T03:13:11;96016.16;;;14.20;100.00
30339;BME280;795;49.296;11.348;2023-05-23T03:15:38;96056.28;;;14.71;100.00
30339;BME280;795;49.296;11.348;2023-05-23T03:18:06;96034.59;;;14.51;100.00
30339;BME280;795;49.296;11.348;2023-05-23T03:20:33;96011.28;;;14.37;100.00
30339;BME280;795;49.296;11.348;2023-05-23T03:23:00;95995.53;;;14.40;100.00
30339;BME280;795;49.296;11.348;2023-05-23T03:25:27;96016.53;;;14.51;100.00
30339;BME280;795;49.296;11.348;2023-05-23T03:27:54;96033.34;;;14.40;100.00
30339;BME280;795;49.296;11.348;2023-05-23T03:30:21;96042.47;;;14.39;100.00
30339;BME280;795;49.296;11.348;2023-05-23T03:32:48;96057.44;;;14.42;100.00
30339;BME280;795;49.296;11.348;2023-05-23T03:35:16;96050.28;;;14.28;100.00
30339;BME280;795;49.296;11.348;2023-05-23T03:37:42;96071.56;;;14.44;100.00
30339;BME280;795;49.296;11.348;2023-05-23T03:40:10;96073.84;;;14.40;100.00
30339;BME280;795;49.296;11.348;2023-05-23T03:42:38;96068.59;;;14.32;100.00
30339;BME280;795;49.296;11.348;2023-05-23T03:45:06;96076.41;;;14.21;100.00
30339;BME280;795;49.296;11.348;2023-05-23T03:47:33;96073.91;;;14.19;100.00
30339;BME280;795;49.296;11.348;2023-05-23T03:50:00;96021.81;;;13.84;100.00
30339;BME280;795;49.296;11.348;2023-05-23T03:52:27;96063.63;;;14.02;100.00
30339;BME280;795;49.296;11.348;2023-05-23T03:54:54;96090.69;;;14.15;100.00
30339;BME280;795;49.296;11.348;2023-05-23T03:57:21;96083.25;;;14.17;100.00
30339;BME280;795;49.296;11.348;2023-05-23T03:59:48;96080.34;;;14.18;100.00
30339;BME280;795;49.296;11.348;2023-05-23T04:02:16;96080.34;;;14.18;100.00
30339;BME280;795;49.296;11.348;2023-05-23T04:04:43;96097.91;;;14.35;100.00
30339;BME280;795;49.296;11.348;2023-05-23T04:07:10;96095.16;;;14.29;100.00
30339;BME280;795;49.296;11.348;2023-05-23T04:09:37;96079.97;;;14.28;100.00
30339;BME280;795;49.296;11.348;2023-05-23T04:12:04;96097.53;;;14.45;100.00
30339;BME280;795;49.296;11.348;2023-05-23T04:14:31;96073.63;;;14.42;100.00
30339;BME280;795;49.296;11.348;2023-05-23T04:16:59;96106.13;;;14.61;100.00
30339;BME280;795;49.296;11.348;2023-05-23T04:19:26;96091.56;;;14.56;100.00
30339;BME280;795;49.296;11.348;2023-05-23T04:21:53;96100.34;;;14.71;100.00
30339;BME280;795;49.296;11.348;2023-05-23T04:24:20;96098.50;;;14.72;100.00
30339;BME280;795;49.296;11.348;2023-05-23T04:26:47;96094.13;;;14.71;100.00
30339;BME280;795;49.296;11.348;2023-05-23T04:29:15;96088.28;;;14.67;100.00
30339;BME280;795;49.296;11.348;2023-05-23T04:31:42;96092.09;;;14.79;100.00
30339;BME280;795;49.296;11.348;2023-05-23T04:34:12;96102.28;;;14.84;100.00
30339;BME280;795;49.296;11.348;2023-05-23T04:36:39;96100.81;;;14.81;100.00
30339;BME280;795;49.296;11.348;2023-05-23T04:39:06;96082.06;;;14.73;100.00
30339;BME280;795;49.296;11.348;2023-05-23T04:41:33;96112.09;;;14.91;100.00
30339;BME280;795;49.296;11.348;2023-05-23T04:44:00;96092.94;;;14.80;100.00
30339;BME280;795;49.296;11.348;2023-05-23T04:46:27;96080.84;;;14.76;100.00
30339;BME280;795;49.296;11.348;2023-05-23T04:48:54;96087.94;;;14.83;100.00
30339;BME280;795;49.296;11.348;2023-05-23T04:51:22;96116.50;;;15.12;100.00
30339;BME280;795;49.296;11.348;2023-05-23T04:53:50;96121.94;;;15.25;100.00
30339;BME280;795;49.296;11.348;2023-05-23T04:56:18;96099.25;;;15.26;100.00
30339;BME280;795;49.296;11.348;2023-05-23T04:58:47;96109.28;;;15.32;100.00
30339;BME280;795;49.296;11.348;2023-05-23T05:01:15;96130.56;;;15.61;100.00
30339;BME280;795;49.296;11.348;2023-05-23T05:03:42;96125.97;;;15.75;100.00
30339;BME280;795;49.296;11.348;2023-05-23T05:06:09;96103.09;;;15.77;100.00
30339;BME280;795;49.296;11.348;2023-05-23T05:08:35;96097.69;;;15.90;100.00
30339;BME280;795;49.296;11.348;2023-05-23T05:11:03;96091.63;;;16.02;100.00
30339;BME280;795;49.296;11.348;2023-05-23T05:13:30;96116.38;;;16.31;100.00
30339;BME280;795;49.296;11.348;2023-05-23T05:15:57;96095.47;;;16.45;100.00
30339;BME280;795;49.296;11.348;2023-05-23T05:18:29;96120.69;;;16.65;100.00
30339;BME280;795;49.296;11.348;2023-05-23T05:20:56;96108.81;;;16.66;100.00
30339;BME280;795;49.296;11.348;2023-05-23T05:23:25;96083.44;;;16.34;100.00
30339;BME280;795;49.296;11.348;2023-05-23T05:25:56;96120.31;;;16.35;100.00
30339;BME280;795;49.296;11.348;2023-05-23T05:28:23;96054.34;;;15.97;100.00
30339;BME280;795;49.296;11.348;2023-05-23T05:30:50;96123.22;;;16.40;100.00
30339;BME280;795;49.296;11.348;2023-05-23T05:33:21;96104.06;;;16.42;100.00
30339;BME280;795;49.296;11.348;2023-05-23T05:35:51;96095.09;;;16.41;100.00
30339;BME280;795;49.296;11.348;2023-05-23T05:38:18;96126.78;;;16.54;100.00
30339;BME280;795;49.296;11.348;2023-05-23T05:40:45;96119.41;;;16.68;100.00
30339;BME280;795;49.296;11.348;2023-05-23T05:43:12;96128.75;;;16.85;100.00
30339;BME280;795;49.296;11.348;2023-05-23T05:45:39;96133.94;;;16.86;100.00
30339;BME280;795;49.296;11.348;2023-05-23T05:48:06;96079.44;;;16.56;100.00
30339;BME280;795;49.296;11.348;2023-05-23T05:50:34;96129.59;;;16.85;100.00
30339;BME280;795;49.296;11.348;2023-05-23T05:53:01;96096.75;;;16.55;100.00
30339;BME280;795;49.296;11.348;2023-05-23T05:55:28;96130.34;;;16.99;100.00
30339;BME280;795;49.296;11.348;2023-05-23T05:57:55;96118.84;;;17.03;100.00
30339;BME280;795;49.296;11.348;2023-05-23T06:00:22;96129.72;;;17.41;100.00
30339;BME280;795;49.296;11.348;2023-05-23T06:02:49;96101.22;;;17.25;100.00
30339;BME280;795;49.296;11.348;2023-05-23T06:05:23;96133.22;;;17.55;100.00
30339;BME280;795;49.296;11.348;2023-05-23T06:07:51;96129.00;;;17.21;100.00
30339;BME280;795;49.296;11.348;2023-05-23T06:10:18;96002.34;;;16.39;100.00
30339;BME280;795;49.296;11.348;2023-05-23T06:12:45;96110.78;;;16.90;100.00
30339;BME280;795;49.296;11.348;2023-05-23T06:15:12;96142.03;;;16.99;100.00
30339;BME280;795;49.296;11.348;2023-05-23T06:17:41;96096.03;;;16.80;100.00
30339;BME280;795;49.296;11.348;2023-05-23T06:20:09;96140.09;;;17.13;100.00
30339;BME280;795;49.296;11.348;2023-05-23T06:22:36;96137.78;;;17.16;100.00
30339;BME280;795;49.296;11.348;2023-05-23T06:25:05;96121.59;;;17.41;100.00
30339;BME280;795;49.296;11.348;2023-05-23T06:27:33;96143.19;;;17.61;100.00
30339;BME280;795;49.296;11.348;2023-05-23T06:30:00;96090.00;;;17.53;100.00
30339;BME280;795;49.296;11.348;2023-05-23T06:32:27;96141.44;;;17.98;100.00
30339;BME280;795;49.296;11.348;2023-05-23T06:34:54;96147.06;;;18.52;100.00
30339;BME280;795;49.296;11.348;2023-05-23T06:37:21;96135.09;;;18.53;100.00
30339;BME280;795;49.296;11.348;2023-05-23T06:39:48;96109.16;;;18.57;100.00
30339;BME280;795;49.296;11.348;2023-05-23T06:42:15;96146.22;;;18.88;100.00
30339;BME280;795;49.296;11.348;2023-05-23T06:44:42;96127.44;;;18.86;100.00
30339;BME280;795;49.296;11.348;2023-05-23T06:47:09;96136.19;;;18.70;100.00
30339;BME280;795;49.296;11.348;2023-05-23T06:49:36;96140.81;;;18.70;100.00
30339;BME280;795;49.296;11.348;2023-05-23T06:52:03;96147.88;;;19.07;100.00
30339;BME280;795;49.296;11.348;2023-05-23T06:54:30;96102.59;;;18.40;100.00
30339;BME280;795;49.296;11.348;2023-05-23T06:56:57;96148.56;;;19.02;100.00
30339;BME280;795;49.296;11.348;2023-05-23T06:59:24;96152.28;;;19.08;100.00
30339;BME280;795;49.296;11.348;2023-05-23T07:01:51;96149.56;;;19.08;100.00
30339;BME280;795;49.296;11.348;2023-05-23T07:04:18;96156.72;;;19.39;100.00
30339;BME280;795;49.296;11.348;2023-05-23T07:06:45;96120.97;;;19.17;100.00
30339;BME280;795;49.296;11.348;2023-05-23T07:09:12;96150.47;;;19.79;100.00
30339;BME280;795;49.296;11.348;2023-05-23T07:11:39;96155.50;;;19.94;100.00
30339;BME280;795;49.296;11.348;2023-05-23T07:14:06;96152.91;;;19.99;100.00
30339;BME280;795;49.296;11.348;2023-05-23T07:16:33;96160.03;;;20.00;100.00
30339;BME280;795;49.296;11.348;2023-05-23T07:19:01;96142.09;;;19.81;100.00
30339;BME280;795;49.296;11.348;2023-05-23T07:21:29;96169.75;;;19.66;100.00
30339;BME280;795;49.296;11.348;2023-05-23T07:23:56;96143.22;;;19.62;100.00
30339;BME280;795;49.296;11.348;2023-05-23T07:26:23;96158.63;;;20.09;100.00
30339;BME280;795;49.296;11.348;2023-05-23T07:28:50;96167.09;;;20.77;100.00
30339;BME280;795;49.296;11.348;2023-05-23T07:31:17;96127.81;;;20.90;100.00
30339;BME280;795;49.296;11.348;2023-05-23T07:33:44;96156.34;;;20.18;100.00
30339;BME280;795;49.296;11.348;2023-05-23T07:36:11;96163.50;;;19.48;100.00
30339;BME280;795;49.296;11.348;2023-05-23T07:38:38;96164.50;;;19.35;100.00
30339;BME280;795;49.296;11.348;2023-05-23T07:41:05;96181.88;;;19.82;100.00
30339;BME280;795;49.296;11.348;2023-05-23T07:43:39;96183.00;;;19.63;100.00
30339;BME280;795;49.296;11.348;2023-05-23T07:46:06;96194.19;;;19.84;100.00
30339;BME280;795;49.296;11.348;2023-05-23T07:48:33;96182.22;;;19.74;100.00
30339;BME280;795;49.296;11.348;2023-05-23T07:51:00;96183.22;;;19.61;100.00
30339;BME280;795;49.296;11.348;2023-05-23T07:53:27;96182.72;;;19.53;100.00
30339;BME280;795;49.296;11.348;2023-05-23T07:55:54;96162.59;;;19.54;100.00
30339;BME280;795;49.296;11.348;2023-05-23T07:58:22;96203.13;;;19.62;100.00
30339;BME280;795;49.296;11.348;2023-05-23T08:03:37;96158.13;;;19.59;100.00
30339;BME280;795;49.296;11.348;2023-05-23T08:06:04;96192.97;;;19.69;100.00
30339;BME280;795;49.296;11.348;2023-05-23T08:08:33;96152.78;;;19.35;100.00
30339;BME280;795;49.296;11.348;2023-05-23T08:11:00;96141.34;;;18.96;100.00
30339;BME280;795;49.296;11.348;2023-05-23T08:13:26;96199.50;;;19.32;100.00
30339;BME280;795;49.296;11.348;2023-05-23T08:15:54;96194.50;;;19.29;100.00
30339;BME280;795;49.296;11.348;2023-05-23T08:18:21;96175.06;;;19.61;100.00
30339;BME280;795;49.296;11.348;2023-05-23T08:20:48;96212.84;;;19.40;100.00
30339;BME280;795;49.296;11.348;2023-05-23T08:23:15;96208.53;;;19.80;100.00
30339;BME280;795;49.296;11.348;2023-05-23T08:25:43;96214.88;;;19.44;100.00
30339;BME280;795;49.296;11.348;2023-05-23T08:28:10;96186.56;;;18.73;100.00
30339;BME280;795;49.296;11.348;2023-05-23T08:30:37;96204.16;;;18.70;100.00
30339;BME280;795;49.296;11.348;2023-05-23T08:33:04;96224.84;;;18.96;100.00
30339;BME280;795;49.296;11.348;2023-05-23T08:35:33;96204.72;;;18.97;100.00
30339;BME280;795;49.296;11.348;2023-05-23T08:38:06;96228.16;;;19.34;100.00
30339;BME280;795;49.296;11.348;2023-05-23T08:40:37;96232.78;;;19.52;100.00
30339;BME280;795;49.296;11.348;2023-05-23T08:43:06;96227.56;;;18.96;100.00
30339;BME280;795;49.296;11.348;2023-05-23T08:45:33;96202.38;;;18.82;100.00
30339;BME280;795;49.296;11.348;2023-05-23T08:48:07;96226.34;;;19.28;100.00
30339;BME280;795;49.296;11.348;2023-05-23T08:50:39;96233.38;;;19.17;100.00
30339;BME280;795;49.296;11.348;2023-05-23T08:53:09;96215.59;;;19.33;100.00
30339;BME280;795;49.296;11.348;2023-05-23T08:55:37;96223.63;;;19.46;100.00
30339;BME280;795;49.296;11.348;2023-05-23T08:58:05;96221.53;;;19.48;100.00
30339;BME280;795;49.296;11.348;2023-05-23T09:00:33;96230.28;;;19.32;100.00
30339;BME280;795;49.296;11.348;2023-05-23T09:03:00;96220.97;;;20.17;100.00
30339;BME280;795;49.296;11.348;2023-05-23T09:05:27;96238.78;;;21.19;90.31
30339;BME280;795;49.296;11.348;2023-05-23T09:07:54;96205.81;;;21.49;85.97
30339;BME280;795;49.296;11.348;2023-05-23T09:10:22;96222.84;;;20.70;88.22
30339;BME280;795;49.296;11.348;2023-05-23T09:12:49;96216.28;;;20.24;90.60
30339;BME280;795;49.296;11.348;2023-05-23T09:15:16;96241.78;;;20.00;95.93
30339;BME280;795;49.296;11.348;2023-05-23T09:17:44;96246.75;;;20.03;97.27
30339;BME280;795;49.296;11.348;2023-05-23T09:20:15;96234.78;;;19.74;97.19
30339;BME280;795;49.296;11.348;2023-05-23T09:22:47;96257.69;;;19.85;98.64
30339;BME280;795;49.296;11.348;2023-05-23T09:25:15;96233.25;;;20.08;96.81
30339;BME280;795;49.296;11.348;2023-05-23T09:27:42;96231.13;;;20.51;93.49
30339;BME280;795;49.296;11.348;2023-05-23T09:30:14;96231.75;;;20.77;88.42
30339;BME280;795;49.296;11.348;2023-05-23T09:32:41;96236.16;;;20.89;85.18
30339;BME280;795;49.296;11.348;2023-05-23T09:35:09;96262.38;;;21.25;83.50
30339;BME280;795;49.296;11.348;2023-05-23T09:37:44;96252.19;;;21.21;78.36
30339;BME280;795;49.296;11.348;2023-05-23T09:40:15;96251.47;;;21.25;76.38
30339;BME280;795;49.296;11.348;2023-05-23T09:42:46;96254.25;;;21.53;76.71
30339;BME280;795;49.296;11.348;2023-05-23T09:45:15;96248.38;;;21.33;76.81
30339;BME280;795;49.296;11.348;2023-05-23T09:47:52;96256.91;;;21.25;74.84
30339;BME280;795;49.296;11.348;2023-05-23T09:50:21;96268.91;;;20.89;75.27
30339;BME280;795;49.296;11.348;2023-05-23T09:52:49;96260.97;;;21.11;73.63
30339;BME280;795;49.296;11.348;2023-05-23T09:55:17;96259.19;;;21.05;75.07
30339;BME280;795;49.296;11.348;2023-05-23T09:57:52;96262.72;;;20.71;78.77
30339;BME280;795;49.296;11.348;2023-05-23T10:00:23;96266.16;;;20.78;80.58
30339;BME280;795;49.296;11.348;2023-05-23T10:03:12;96262.47;;;20.84;80.96
30339;BME280;795;49.296;11.348;2023-05-23T10:05:52;96236.41;;;21.11;76.95
30339;BME280;795;49.296;11.348;2023-05-23T10:08:42;96250.72;;;21.53;71.86
30339;BME280;795;49.296;11.348;2023-05-23T10:14:09;96252.03;;;20.81;74.91
30339;BME280;795;49.296;11.348;2023-05-23T10:17:05;96272.28;;;20.50;80.88
30339;BME280;795;49.296;11.348;2023-05-23T10:19:43;96259.34;;;20.45;84.14
30339;BME280;795;49.296;11.348;2023-05-23T10:22:15;96265.19;;;20.61;84.65
30339;BME280;795;49.296;11.348;2023-05-23T10:24:44;96213.03;;;21.55;77.41
30339;BME280;795;49.296;11.348;2023-05-23T10:27:13;96254.03;;;23.99;63.18
30339;BME280;795;49.296;11.348;2023-05-23T10:29:40;96259.00;;;24.02;60.30
30339;BME280;795;49.296;11.348;2023-05-23T10:32:10;96236.13;;;23.32;61.10
30339;BME280;795;49.296;11.348;2023-05-23T10:40:59;96270.53;;;20.67;78.26
30339;BME280;795;49.296;11.348;2023-05-23T10:46:59;96263.16;;;23.06;65.47
30339;BME280;795;49.296;11.348;2023-05-23T10:49:45;96242.38;;;23.27;62.46
30339;BME280;795;49.296;11.348;2023-05-23T10:52:16;96239.88;;;22.71;61.76
30339;BME280;795;49.296;11.348;2023-05-23T10:54:54;96268.81;;;22.67;65.00
30339;BME280;795;49.296;11.348;2023-05-23T10:57:25;96272.31;;;23.34;60.14
30339;BME280;795;49.296;11.348;2023-05-23T10:59:55;96246.84;;;22.62;61.54
30339;BME280;795;49.296;11.348;2023-05-23T11:02:27;96248.97;;;21.87;64.87
30339;BME280;795;49.296;11.348;2023-05-23T11:05:23;96258.63;;;21.66;68.30
30339;BME280;795;49.296;11.348;2023-05-23T11:08:14;96271.53;;;23.00;63.45
30339;BME280;795;49.296;11.348;2023-05-23T11:10:59;96259.28;;;21.96;61.85
30339;BME280;795;49.296;11.348;2023-05-23T11:13:53;96276.88;;;21.14;66.66
30339;BME280;795;49.296;11.348;2023-05-23T11:16:39;96274.38;;;21.75;65.28
30339;BME280;795;49.296;11.348;2023-05-23T11:21:54;96236.88;;;23.44;57.18
30339;BME280;795;49.296;11.348;2023-05-23T11:24:23;96254.78;;;22.63;58.09
30339;BME280;795;49.296;11.348;2023-05-23T11:27:11;96265.38;;;21.87;61.52
30339;BME280;795;49.296;11.348;2023-05-23T11:29:38;96269.44;;;21.61;61.38
30339;BME280;795;49.296;11.348;2023-05-23T11:32:12;96272.25;;;21.77;61.82
30339;BME280;795;49.296;11.348;2023-05-23T11:34:43;96284.06;;;21.55;62.71
30339;BME280;795;49.296;11.348;2023-05-23T11:37:10;96289.22;;;22.76;57.86
30339;BME280;795;49.296;11.348;2023-05-23T11:39:37;96286.34;;;21.98;58.94
30339;BME280;795;49.296;11.348;2023-05-23T11:42:06;96244.72;;;21.67;60.79
30339;BME280;795;49.296;11.348;2023-05-23T11:44:33;96251.53;;;22.99;57.68
30339;BME280;795;49.296;11.348;2023-05-23T11:47:05;96286.22;;;22.94;55.65
30339;BME280;795;49.296;11.348;2023-05-23T11:49:39;96289.22;;;22.76;57.51
30339;BME280;795;49.296;11.348;2023-05-23T11:52:06;96274.88;;;22.85;57.56
30339;BME280;795;49.296;11.348;2023-05-23T11:54:33;96287.06;;;22.78;56.64
30339;BME280;795;49.296;11.348;2023-05-23T11:57:01;96280.75;;;22.77;56.70
30339;BME280;795;49.296;11.348;2023-05-23T11:59:29;96292.16;;;24.22;53.44
30339;BME280;795;49.296;11.348;2023-05-23T12:01:56;96256.56;;;23.84;51.61
30339;BME280;795;49.296;11.348;2023-05-23T12:04:24;96266.91;;;22.84;54.30
30339;BME280;795;49.296;11.348;2023-05-23T12:06:52;96256.13;;;21.64;56.92
30339;BME280;795;49.296;11.348;2023-05-23T12:09:20;96289.81;;;23.33;52.76
30339;BME280;795;49.296;11.348;2023-05-23T12:11:48;96275.69;;;24.22;50.99
30339;BME280;795;49.296;11.348;2023-05-23T12:14:17;96300.00;;;23.92;51.70
30339;BME280;795;49.296;11.348;2023-05-23T12:16:45;96296.09;;;22.78;53.56
30339;BME280;795;49.296;11.348;2023-05-23T12:19:16;96288.38;;;22.30;55.67
30339;BME280;795;49.296;11.348;2023-05-23T12:21:48;96272.38;;;21.71;57.18
30339;BME280;795;49.296;11.348;2023-05-23T12:24:21;96282.66;;;22.93;53.56
30339;BME280;795;49.296;11.348;2023-05-23T12:26:57;96280.44;;;22.45;52.36
30339;BME280;795;49.296;11.348;2023-05-23T12:29:31;96249.50;;;21.60;54.68
30339;BME280;795;49.296;11.348;2023-05-23T12:32:05;96281.47;;;21.48;56.60
30339;BME280;795;49.296;11.348;2023-05-23T12:34:32;96279.84;;;21.36;57.22
30339;BME280;795;49.296;11.348;2023-05-23T12:37:00;96262.75;;;21.92;56.49
30339;BME280;795;49.296;11.348;2023-05-23T12:39:35;96255.63;;;21.16;56.79
30339;BME280;795;49.296;11.348;2023-05-23T12:42:08;96254.28;;;20.72;58.03
30339;BME280;795;49.296;11.348;2023-05-23T12:44:36;96282.03;;;20.81;59.88
30339;BME280;795;49.296;11.348;2023-05-23T12:47:03;96245.00;;;23.00;53.73
30339;BME280;795;49.296;11.348;2023-05-23T12:49:30;96258.13;;;23.53;51.58
30339;BME280;795;49.296;11.348;2023-05-23T12:51:57;96257.09;;;23.81;50.70
30339;BME280;795;49.296;11.348;2023-05-23T12:54:24;96281.31;;;23.29;52.35
30339;BME280;795;49.296;11.348;2023-05-23T12:56:52;96276.31;;;22.15;54.19
30339;BME280;795;49.296;11.348;2023-05-23T12:59:19;96291.69;;;21.53;56.85
30339;BME280;795;49.296;11.348;2023-05-23T13:01:46;96243.84;;;21.39;56.78
30339;BME280;795;49.296;11.348;2023-05-23T13:04:13;96272.47;;;21.25;56.71
30339;BME280;795;49.296;11.348;2023-05-23T13:06:40;96284.56;;;20.94;57.54
30339;BME280;795;49.296;11.348;2023-05-23T13:09:07;96287.59;;;20.51;58.12
30339;BME280;795;49.296;11.348;2023-05-23T13:11:34;96253.84;;;19.74;59.89
30339;BME280;795;49.296;11.348;2023-05-23T13:14:02;96184.78;;;19.03;60.95
30339;BME280;795;49.296;11.348;2023-05-23T13:16:29;96296.25;;;20.60;59.25
30339;BME280;795;49.296;11.348;2023-05-23T13:18:56;96268.88;;;21.47;56.83
30339;BME280;795;49.296;11.348;2023-05-23T13:21:23;96264.66;;;21.17;56.93
30339;BME280;795;49.296;11.348;2023-05-23T13:23:50;96289.28;;;20.64;59.46
30339;BME280;795;49.296;11.348;2023-05-23T13:26:17;96296.31;;;20.83;60.45
30339;BME280;795;49.296;11.348;2023-05-23T13:28:45;96282.91;;;20.28;62.65
30339;BME280;795;49.296;11.348;2023-05-23T13:31:12;96278.91;;;19.83;64.99
30339;BME280;795;49.296;11.348;2023-05-23T13:33:39;96293.81;;;19.80;65.44